Flight Track Log - Related Links

Times and Time Zones

All times are in EDT time to prevent confusion due to time zone crossing. See the JIA2371 flight status page for this flight to view local times or setup timezone preferences in your user account.

Time Position Orientation Groundspeed Altitude Reporting Facility
EDT Latitude Longitude Course Direction KTS MPH feet Rate Location/Type
Fri 04:27:28 PM 39.8667 -75.2833 270° West 164 189 800  Level Philadelphia TRACON
Fri 04:28:16 PM 39.8500 -75.3333 247° West 191 220 2,500 2,000 Climbing Philadelphia TRACON
Fri 04:29:16 PM 39.8333 -75.4167 255° West 231 266 4,400 2,226 Climbing Philadelphia TRACON
Fri 04:30:55 PM 39.8431 -75.5619 275° West 273 314 8,400 2,599 Climbing New York Center
Fri 04:31:00 PM 39.9082 -75.7173 258° West  Level FlightAware Approximate
Fri 04:31:53 PM 39.8536 -75.6600 278° West 268 308 11,200  Level New York Center
Fri 04:32:00 PM 39.9001 -75.8425 270° West  Level FlightAware Approximate
Fri 04:32:54 PM 39.8642 -75.7581 278° West 275 316 12,200  Level New York Center
Fri 04:33:54 PM 39.8758 -75.8753 277° West 316 364 13,400 1,230 Climbing New York Center
Fri 04:34:56 PM 39.8892 -75.9981 278° West 331 381 14,700 1,412 Climbing New York Center
Fri 04:35:53 PM 39.9022 -76.1289 277° West 359 413 16,200 1,385 Climbing New York Center
Fri 04:36:53 PM 39.9111 -76.2514 275° West 359 413 17,400 1,240 Climbing New York Center
Fri 04:37:54 PM 39.9175 -76.3844 274° West 359 413 18,700 1,131 Climbing New York Center
Fri 04:38:55 PM 39.9200 -76.5011 272° West 364 419 19,700 1,109 Climbing New York Center
Fri 04:39:53 PM 39.9242 -76.6314 272° West 369 425 20,900 1,119 Climbing New York Center
Fri 04:40:53 PM 39.9075 -76.7572 260° West 369 425 21,900 1,038 Climbing New York Center
Fri 04:42:58 PM 39.7889 -76.9983 237° Southwest 362 417 24,100 1,000 Climbing Washington Center
Fri 04:43:59 PM 39.7375 -77.1081 239° Southwest 367 422 25,000 857 Climbing Washington Center
Fri 04:44:57 PM 39.6839 -77.2200 238° Southwest 367 422 25,800 814 Climbing Washington Center
Fri 04:45:57 PM 39.6344 -77.3294 240° Southwest 360 414 26,600 744 Climbing Washington Center
Fri 04:46:58 PM 39.5808 -77.4386 238° Southwest 360 414 27,300 689 Climbing Washington Center
Fri 04:47:59 PM 39.5292 -77.5475 238° Southwest 360 414 28,000 650 Climbing Washington Center
Fri 04:48:58 PM 39.4792 -77.6592 240° Southwest 360 414 28,600 555 Climbing Washington Center
Fri 04:49:58 PM 39.4253 -77.7706 238° Southwest 360 414 29,100 496 Climbing Washington Center
Fri 04:50:59 PM 39.3731 -77.8817 239° Southwest 360 414 29,600 504 Climbing Washington Center
Fri 04:51:57 PM 39.3250 -78.0008 242° Southwest 360 414 30,100 508 Climbing Washington Center
Fri 04:52:57 PM 39.2808 -78.1175 244° Southwest 365 420 30,600 496 Climbing Washington Center
Fri 04:53:58 PM 39.2325 -78.2308 241° Southwest 365 420 31,100 496 Climbing Washington Center
Fri 04:54:58 PM 39.1906 -78.3392 243° Southwest 365 420 31,600 496 Climbing Washington Center
Fri 04:55:59 PM 39.1442 -78.4553 243° Southwest 365 420 32,100 504 Climbing Washington Center
Fri 04:56:57 PM 39.0997 -78.5686 243° Southwest 365 420 32,600 504 Climbing Washington Center
Fri 04:57:58 PM 39.0531 -78.6817 242° Southwest 360 414 33,100 541 Climbing Washington Center
Fri 04:58:59 PM 39.0083 -78.7947 243° Southwest 360 414 33,700 443 Climbing Washington Center
Fri 05:00:00 PM 38.9636 -78.9047 242° Southwest 360 414 34,000 153 Climbing Washington Center
Fri 05:00:57 PM 38.9167 -79.0175 242° Southwest 360 414 34,000  Level Washington Center
Fri 05:01:58 PM 38.8697 -79.1297 242° Southwest 360 414 34,000  Level Washington Center
Fri 05:02:59 PM 38.8306 -79.2533 248° West 365 420 34,000  Level Washington Center
Fri 05:03:57 PM 38.8097 -79.3853 259° West 371 427 34,000  Level Washington Center
Fri 05:04:58 PM 38.7867 -79.5175 257° West 377 434 34,000  Level Washington Center
Fri 05:05:58 PM 38.7589 -79.6650 256° West 389 448 34,000  Level Washington Center
Fri 05:06:59 PM 38.7383 -79.7811 257° West 389 448 34,000  Level Washington Center
Fri 05:07:57 PM 38.7150 -79.9100 257° West 389 448 34,000  Level Washington Center
Fri 05:08:58 PM 38.6917 -80.0364 257° West 379 436 34,000  Level Washington Center
Fri 05:09:59 PM 38.6628 -80.1731 255° West 367 422 34,000  Level Indianapolis Center
Fri 05:11:00 PM 38.6375 -80.3003 256° West 367 422 34,000  Level Indianapolis Center
Fri 05:12:02 PM 38.6147 -80.4261 257° West 365 420 34,000  Level Indianapolis Center
Fri 05:13:04 PM 38.5897 -80.5517 256° West 364 419 34,000  Level Indianapolis Center
Fri 05:14:05 PM 38.5661 -80.6789 257° West 368 423 34,000  Level Indianapolis Center
Fri 05:15:07 PM 38.5411 -80.8053 256° West 367 422 34,000  Level Indianapolis Center
Fri 05:16:09 PM 38.5169 -80.9322 256° West 368 423 34,000  Level Indianapolis Center
Fri 05:17:10 PM 38.4872 -81.0828 256° West 363 418 34,000  Level Indianapolis Center
Fri 05:18:12 PM 38.4619 -81.2097 256° West 366 421 34,000  Level Indianapolis Center
Fri 05:19:14 PM 38.4372 -81.3361 256° West 365 420 34,000  Level Indianapolis Center
Fri 05:20:15 PM 38.4117 -81.4625 256° West 365 420 34,000  Level Indianapolis Center
Fri 05:21:17 PM 38.3867 -81.5892 256° West 365 420 34,000  Level Indianapolis Center
Fri 05:22:19 PM 38.3614 -81.7147 256° West 364 419 34,000  Level Indianapolis Center
Fri 05:23:20 PM 38.3308 -81.8381 253° West 362 417 34,000  Level Indianapolis Center
Fri 05:24:22 PM 38.2969 -81.9586 250° West 363 418 34,000  Level Indianapolis Center
Fri 05:25:24 PM 38.2625 -82.0814 250° West 366 421 34,000  Level Indianapolis Center
Fri 05:26:26 PM 38.2283 -82.2025 250° West 365 420 34,000  Level Indianapolis Center
Fri 05:27:27 PM 38.1875 -82.3481 250° West 364 419 34,000  Level Indianapolis Center
Fri 05:28:29 PM 38.1525 -82.4708 250° West 368 423 34,000  Level Indianapolis Center
Fri 05:29:31 PM 38.1172 -82.5919 250° West 365 420 34,000  Level Indianapolis Center
Fri 05:30:32 PM 38.0828 -82.7136 250° West 367 422 34,000  Level Indianapolis Center
Fri 05:31:34 PM 38.0472 -82.8356 250° West 368 423 34,000  Level Indianapolis Center
Fri 05:32:36 PM 37.9950 -82.9467 239° Southwest 370 426 34,000  Level Indianapolis Center
Fri 05:33:37 PM 37.9331 -83.0758 239° Southwest 368 423 34,000  Level Indianapolis Center
Fri 05:34:39 PM 37.8794 -83.1864 238° Southwest 368 423 34,000  Level Indianapolis Center
Fri 05:35:41 PM 37.8256 -83.2969 238° Southwest 369 425 34,000  Level Indianapolis Center
Fri 05:36:42 PM 37.7706 -83.4064 238° Southwest 369 425 34,000  Level Indianapolis Center
Fri 05:37:44 PM 37.7161 -83.5144 238° Southwest 366 421 34,000  Level Indianapolis Center
Fri 05:38:46 PM 37.6614 -83.6253 238° Southwest 368 423 34,000  Level Indianapolis Center
Fri 05:39:47 PM 37.5978 -83.7536 238° Southwest 371 427 34,000  Level Indianapolis Center
Fri 05:40:49 PM 37.5428 -83.8631 238° Southwest 370 426 34,000 -435 Level Indianapolis Center
Fri 05:41:51 PM 37.4878 -83.9714 237° Southwest 368 423 33,100 -927 Descending Indianapolis Center
Fri 05:42:52 PM 37.4308 -84.0817 237° Southwest 374 430 32,100 -976 Descending Indianapolis Center
Fri 05:43:54 PM 37.3767 -84.1928 238° Southwest 373 429 31,100 -968 Descending Indianapolis Center
Fri 05:44:56 PM 37.3194 -84.3022 237° Southwest 374 430 30,100 -1,171 Descending Indianapolis Center
Fri 05:45:57 PM 37.2539 -84.4319 238° Southwest 377 434 28,700 -1,659 Descending Indianapolis Center
Fri 05:46:59 PM 37.1978 -84.5422 237° Southwest 376 433 26,700 -1,951 Descending Indianapolis Center
Fri 05:48:00 PM 37.1422 -84.6533 238° Southwest 375 432 24,700 -1,951 Descending Indianapolis Center
Fri 05:49:02 PM 37.0858 -84.7603 237° Southwest 371 427 22,700 -1,306 Descending Indianapolis Center
Fri 05:50:04 PM 37.0358 -84.8569 237° Southwest 352 405 22,000 -341 Descending Indianapolis Center
Fri 05:51:05 PM 36.9831 -84.9589 237° Southwest 349 402 22,000  Level Indianapolis Center
Fri 05:52:07 PM 36.9194 -85.0797 237° Southwest 348 400 22,000  Level Indianapolis Center
Fri 05:53:09 PM 36.8672 -85.1817 237° Southwest 349 402 22,000  Level Indianapolis Center
Fri 05:54:11 PM 36.8139 -85.2825 237° Southwest 349 402 22,000  Level Indianapolis Center
Fri 05:55:12 PM 36.7611 -85.3828 237° Southwest 349 402 22,000 -319 Level Indianapolis Center
Fri 05:55:45 PM 36.7264 -85.4461 236° Southwest 346 398 21,500 -645 Descending Memphis Center
Fri 05:56:45 PM 36.6786 -85.5603 242° Southwest 369 425 21,000 -250 Descending Memphis Center
Fri 05:57:45 PM 36.6264 -85.6642 238° Southwest 369 425 21,000  Level Memphis Center
Fri 05:58:45 PM 36.5739 -85.7681 238° Southwest 369 425 21,000 -650 Level Memphis Center
Fri 05:59:45 PM 36.5336 -85.8633 242° Southwest 364 419 19,700 -1,800 Descending Memphis Center
Fri 06:00:45 PM 36.4911 -85.9536 240° Southwest 336 387 17,400 -2,650 Descending Memphis Center
Fri 06:01:45 PM 36.4503 -86.0356 238° Southwest 294 338 14,400 -2,850 Descending Memphis Center
Fri 06:02:45 PM 36.4197 -86.1225 246° West 278 320 11,700 -2,600 Descending Memphis Center
Fri 06:03:45 PM 36.3981 -86.2164 254° West 267 307 9,200 -2,450 Descending Memphis Center
Fri 06:04:45 PM 36.3756 -86.2947 250° West 257 296 6,800 -2,150 Descending Memphis Center
Fri 06:05:45 PM 36.3486 -86.3658 245° Southwest 242 278 4,900 -1,500 Descending Memphis Center
Fri 06:06:45 PM 36.3197 -86.4367 243° Southwest 236 272 3,800 -1,050 Descending Memphis Center
Fri 06:07:45 PM 36.2928 -86.5075 245° Southwest 236 272 2,800 -900 Descending Memphis Center
Fri 06:08:45 PM 36.2528 -86.5686 231° Southwest 236 272 2,000 -400 Descending Memphis Center
Fri 06:09:45 PM 36.2167 -86.6139 225° Southwest 201 231 2,000  Level Memphis Center

Login

Don't have an account? Register now (free) for customized features, flight alerts, and more!